Rechercher aéroport 
image banner adimage banner ad
image banner ad

FYKT - Keetmanshoop

Situé à Keetmanshoop, Namibia

ICAO - FYKT, IATA - KMP

Données fournies par Airmate  

Information générale

Coordonnées: S26°32'20" E18°6'42"
Élévation : 3506 feet MSL.
 
Voir autres Aéroports à Karas

Données opérationnelles

Accessible au public
Heure actuelle UTC:
Heure actuelle locale:
Météo
TAF: TAF FYKT 181600Z 1818/1918 17003KT CAVOK BECMG 1819/1821 19016KT BECMG 1903/1905 21006KT
Voir NOTAMs / SUP AIP / TFR affectant cet aéroport [VIEW]
Fréquences de communication: [VIEW]

Pistes:

Identifiant RWYQFULongueur (ft)Largeur (ft)SurfaceLDA (ft)
0416°7598148ASP
22196°7598148
18155°470598
36335°470598

Coordonnées de l'aéroport

Adresse: Keetmanshoop Namibia

Vue satellite de FYKT